Relevés horaires Matro (Suisse)


Relevés horaires à Matro - Dimanche 12 Oct. 2014
Heure UTC1 Température [°C] Vent [km/h] Hum. [%] Pres.4 [hPa] Visi. [Km] Nébu. [octa] Préc.5 [mm] Cond.
2m. Res. Ros. Dir.2 Vit. Moy. Raf.3
23:00 7.4 2.1 7.4 SSE 46.3 46.3 61.1 100 850(-1.3/3h) -- -- -- --
22:00 7.0 1.9 7.0 SSE 40.7 48.2 64.8 100 850(-0.3/3h) -- -- -- --
21:00 6.8 2 6.8 SSE 35.2 48.2 61.1 100 850(-0.2/3h) -- -- -- --
20:00 6.8 1.8 6.8 SE 38.9 44.4 55.6 100 850(0.0/3h) -- -- -- --
19:00 7.0 1.5 6.7 SSE 48.2 48.2 61.1 98 850(-0.3/3h) -- -- -- --
18:00 6.8 1.3 6.6 SSE 46.3 51.9 72.2 99 850(0.2/3h) -- -- -- --
17:00 6.5 1.5 6.5 SSE 37.0 38.9 50.0 100 850(0.1/3h) -- -- -- --
16:00 6.2 1.2 6.2 SSE 35.2 44.4 59.3 100 850(-0.3/3h) -- -- -- --
15:00 5.7 -0.3 5.7 SE 48.2 48.2 59.3 100 850(-1.1/3h) -- -- -- --
14:00 5.9 0.2 5.8 SE 44.4 44.4 50.0 99 850(-1.5/3h) -- -- -- --
13:00 6.0 0.6 6.0 SE 40.7 38.9 46.3 100 850(-1.1/3h) -- -- -- --
12:00 5.9 1.1 5.1 SE 31.5 35.2 44.4 95 850(-0.4/3h) -- -- -- --
11:00 6.3 1.8 6.0 SSE 29.6 33.3 42.6 98 850(0.2/3h) -- -- -- --
10:00 6.1 1.1 5.7 SE 35.2 35.2 44.4 97 850(0.6/3h) -- -- -- --
09:00 5.8 0.7 5.8 SE 35.2 35.2 40.7 100 850(0.8/3h) -- -- -- --
08:00 5.8 1.1 5.7 SE 29.6 29.6 37.0 99 850(0.7/3h) -- -- -- --
07:00 5.8 1.8 5.8 SSE 22.2 31.5 38.9 100 850(0.2/3h) -- -- -- --
06:00 5.7 1.2 5.7 SE 27.8 27.8 35.2 100 850(-0.1/3h) -- -- -- --
05:00 5.5 0.9 5.4 SSE 27.8 27.8 35.2 99 850(-0.2/3h) -- -- -- --
04:00 5.8 1.6 5.3 SE 24.1 25.9 27.8 97 850(-0.4/3h) -- -- -- --
03:00 6.0 1.9 5.2 SSE 24.1 25.9 29.6 95 850(-0.3/3h) -- -- -- --
02:00 6.4 2.6 5.2 ESE 22.2 20.4 24.1 92 850(-0.3/3h) -- -- -- --
01:00 6.2 2.8 4.1 SSE 18.5 25.9 29.6 86 850(0.1/3h) -- -- -- --
00:00 5.8 1.5 5.4 SSE 25.9 25.9 29.6 97 850(-0.2/3h) -- -- -- --

1 Coordinated Universal Time. Actuellement il est 22:00 locale et 20:00 UTC.

2 Le vent souffle depuis la direction indiquée vers la direction oposée.

3 Les rafales max. sont disponible 40 min après l'heure du relevé.

4 Pour les stations d'altitude (plus de 600m) le géopotentiel du niveau le plus proche de la pression obligatoire est indiqué.

5 Les stations disposant d'un diffuseur peuvent indiquer "trace". Cela signifie que des précipitations ont touchés le sol mais que la quantité est inférieure à 0.1 mm.

Copyright

Les données affichées sur cette page sont la propriété exclusive de Météo Suisse.

Récapitulatif de la journée
Température [°C] Vent [km/h] Ensoleillement4 [h] Precipitations totale5 [mm] Pression [Hpa]
Min1 Max.2 Moy.3 Max. Min Max.
5.5 6.8 36.7 72.2 0 h 42 min 0 850.0 850.0

1 Température minimale relevée entre 18:00 UTC la veille et 18:00 UTC le jour donné.

2 Température maximale relevée entre 06:00 UTC le jour donné et 06:00 UTC le lendemain.

3 Vent moyen de la journée basé sur les relevés horaires.

4 Ensoleillement en heures relevé entre 06:00 UTC la veille et 06:00 UTC le jour donné.

5 Précipitations totales tombées entre 06:00 UTC la jour donné et 06:00 UTC le lendemain.

Graphiques horaires